Time;durP1;ratioP1;P1;durP2;ratioP2;P2;SDS_P1;SDS_P2;PMS_P1;PMS_P2;Temp;Humidity;BMP_temperature;BMP_pressure;BME280_temperature;BME280_humidity;BME280_pressure;Samples;Min_cycle;Max_cycle;Signal;HPM_P1;HPM_P2
2022/08/31 00:05:25;;;;;;;;;;;;;;;;;;5097674;28;20394;-76
2022/08/31 00:07:51;;;;;;;;;;;;;;;;;;5101895;28;19924;-77
2022/08/31 00:10:19;;;;;;;;;;;;;;;;;;5100258;28;19924;-78
2022/08/31 00:12:47;;;;;;;;;;;;;;;;;;5099507;28;19924;-78
2022/08/31 00:15:15;;;;;;;;;;;;;;;;;;5095829;28;19924;-77
2022/08/31 00:17:42;;;;;;;;;;;;;;;;;;5096030;28;20014;-78
2022/08/31 00:20:09;;;;;;;;;;;;;;;;;;5095616;28;20386;-77
2022/08/31 00:22:36;;;;;;;;;;;;;;;;;;5096085;28;19947;-78
2022/08/31 00:25:03;;;;;;;;;;;;;;;;;;5096095;28;19924;-78
2022/08/31 00:27:29;;;;;;;;;;;;;;;;;;5095755;28;19928;-77
2022/08/31 00:29:57;;;;;;;;;;;;;;;;;;5096137;28;20231;-79
2022/08/31 00:32:24;;;;;;;;;;;;;;;;;;5098667;28;19924;-77
2022/08/31 00:34:51;;;;;;;;;;;;;;;;;;5096082;28;19924;-78
2022/08/31 00:37:17;;;;;;;;;;;;;;;;;;5097660;28;19928;-79
2022/08/31 00:39:44;;;;;;;;;;;;;;;;;;5098792;28;19969;-77
2022/08/31 00:42:11;;;;;;;;;;;;;;;;;;5097640;28;19924;-77
2022/08/31 00:44:37;;;;;;;;;;;;;;;;;;5098105;28;19969;-77
2022/08/31 00:47:06;;;;;;;;;;;;;;;;;;5096773;28;19992;-80
2022/08/31 00:49:34;;;;;;;;;;;;;;;;;;5098459;28;19928;-80
2022/08/31 00:52:03;;;;;;;;;;;;;;;;;;5098992;28;19928;-80
2022/08/31 00:54:33;;;;;;;;;;;;;;;;;;5099283;28;19924;-80
2022/08/31 00:56:59;;;;;;;;;;;;;;;;;;5098821;28;20354;-80
2022/08/31 00:59:26;;;;;;;;;;;;;;;;;;5102089;28;20288;-78
2022/08/31 01:01:53;;;;;;;;;;;;;;;;;;5107545;28;19969;-78
2022/08/31 01:04:21;;;;;;;;;;;;;;;;;;5111882;28;19957;-78
2022/08/31 01:06:48;;;;;;;;;;;;;;;;;;5105810;28;19928;-78
2022/08/31 01:09:15;;;;;;;;;;;;;;;;;;5103250;28;19924;-79
2022/08/31 01:11:42;;;;;;;;;;;;;;;;;;5099822;28;19924;-78
2022/08/31 01:14:09;;;;;;;;;;;;;;;;;;5096885;28;19966;-79
2022/08/31 01:16:38;;;;;;;;;;;;;;;;;;5096586;28;19931;-78
2022/08/31 01:19:07;;;;;;;;;;;;;;;;;;5097695;28;19924;-78
2022/08/31 01:21:38;;;;;;;;;;;;;;;;;;5097738;28;19993;-78
2022/08/31 01:24:06;;;;;;;;;;;;;;;;;;5098657;28;19924;-80
2022/08/31 01:26:33;;;;;;;;;;;;;;;;;;5097302;28;19924;-80
2022/08/31 01:29:02;;;;;;;;;;;;;;;;;;5097038;28;20376;-80
2022/08/31 01:31:30;;;;;;;;;;;;;;;;;;5097536;28;19983;-79
2022/08/31 01:33:56;;;;;;;;;;;;;;;;;;5096731;28;20410;-79
2022/08/31 01:36:23;;;;;;;;;;;;;;;;;;5097133;28;19924;-78
2022/08/31 01:38:50;;;;;;;;;;;;;;;;;;5096348;28;19924;-80
2022/08/31 01:41:18;;;;;;;;;;;;;;;;;;5096222;28;19924;-79
2022/08/31 01:43:44;;;;;;;;;;;;;;;;;;5097358;28;19924;-80
2022/08/31 01:46:12;;;;;;;;;;;;;;;;;;5096635;28;20440;-78
2022/08/31 01:48:39;;;;;;;;;;;;;;;;;;5095963;28;20331;-80
2022/08/31 01:51:06;;;;;;;;;;;;;;;;;;5095586;28;20336;-79
2022/08/31 01:53:33;;;;;;;;;;;;;;;;;;5096919;28;19924;-79
2022/08/31 01:56:00;;;;;;;;;;;;;;;;;;5096762;28;20403;-80
2022/08/31 01:58:27;;;;;;;;;;;;;;;;;;5095237;28;20011;-77
2022/08/31 02:00:54;;;;;;;;;;;;;;;;;;5093759;28;19946;-76
2022/08/31 02:03:20;;;;;;;;;;;;;;;;;;5094253;28;19971;-77
2022/08/31 02:05:47;;;;;;;;;;;;;;;;;;5093636;28;19979;-76
2022/08/31 02:08:13;;;;;;;;;;;;;;;;;;5093873;28;20398;-77
2022/08/31 02:10:41;;;;;;;;;;;;;;;;;;5093453;28;19969;-78
2022/08/31 02:13:08;;;;;;;;;;;;;;;;;;5093502;28;19975;-77
2022/08/31 02:15:37;;;;;;;;;;;;;;;;;;5094705;28;19924;-77
2022/08/31 02:18:04;;;;;;;;;;;;;;;;;;5093581;28;20540;-76
2022/08/31 02:20:30;;;;;;;;;;;;;;;;;;5093241;28;19928;-77
2022/08/31 02:22:57;;;;;;;;;;;;;;;;;;5093902;28;19967;-77
2022/08/31 02:25:23;;;;;;;;;;;;;;;;;;5093713;28;19924;-77
2022/08/31 02:27:50;;;;;;;;;;;;;;;;;;5092494;28;19971;-77
2022/08/31 02:30:18;;;;;;;;;;;;;;;;;;5093220;28;20429;-76
2022/08/31 02:32:45;;;;;;;;;;;;;;;;;;5093661;28;19939;-77
2022/08/31 02:35:12;;;;;;;;;;;;;;;;;;5093601;28;19936;-77
2022/08/31 02:37:38;;;;;;;;;;;;;;;;;;5093264;28;19969;-76
2022/08/31 02:40:07;;;;;;;;;;;;;;;;;;5093116;28;20371;-78
2022/08/31 02:42:34;;;;;;;;;;;;;;;;;;5096216;28;19931;-79
2022/08/31 02:45:00;;;;;;;;;;;;;;;;;;5095687;28;20335;-78
2022/08/31 02:47:29;;;;;;;;;;;;;;;;;;5096083;28;19924;-78
2022/08/31 02:49:57;;;;;;;;;;;;;;;;;;5095488;28;19924;-77
2022/08/31 02:52:24;;;;;;;;;;;;;;;;;;5095450;28;19968;-78
2022/08/31 02:54:50;;;;;;;;;;;;;;;;;;5097693;28;19924;-79
2022/08/31 02:57:17;;;;;;;;;;;;;;;;;;5096048;28;20383;-80
2022/08/31 02:59:43;;;;;;;;;;;;;;;;;;5095343;28;20023;-80
2022/08/31 03:02:10;;;;;;;;;;;;;;;;;;5095662;28;20299;-80
2022/08/31 03:04:36;;;;;;;;;;;;;;;;;;5096177;28;20329;-79
2022/08/31 03:07:04;;;;;;;;;;;;;;;;;;5095410;28;19967;-78
2022/08/31 03:09:31;;;;;;;;;;;;;;;;;;5095192;28;19977;-79
2022/08/31 03:11:58;;;;;;;;;;;;;;;;;;5095319;28;19924;-77
2022/08/31 03:14:25;;;;;;;;;;;;;;;;;;5095688;28;19931;-78
2022/08/31 03:16:51;;;;;;;;;;;;;;;;;;5100970;28;19931;-79
2022/08/31 03:19:18;;;;;;;;;;;;;;;;;;5097578;28;20011;-78
2022/08/31 03:21:45;;;;;;;;;;;;;;;;;;5100979;28;19928;-77
2022/08/31 03:24:16;;;;;;;;;;;;;;;;;;5105015;28;19924;-77
2022/08/31 03:26:43;;;;;;;;;;;;;;;;;;5105676;28;19924;-76
2022/08/31 03:29:11;;;;;;;;;;;;;;;;;;5105080;28;20212;-76
2022/08/31 03:31:38;;;;;;;;;;;;;;;;;;5105435;28;19924;-76
2022/08/31 03:34:04;;;;;;;;;;;;;;;;;;5104063;28;20060;-76
2022/08/31 03:36:31;;;;;;;;;;;;;;;;;;5105329;28;19924;-77
2022/08/31 03:38:58;;;;;;;;;;;;;;;;;;5105645;28;19924;-77
2022/08/31 03:41:26;;;;;;;;;;;;;;;;;;5104716;28;19931;-78
2022/08/31 03:43:52;;;;;;;;;;;;;;;;;;5104824;28;19928;-78
2022/08/31 03:46:19;;;;;;;;;;;;;;;;;;5101865;28;19924;-78
2022/08/31 03:48:46;;;;;;;;;;;;;;;;;;5100004;28;19928;-79
2022/08/31 03:51:13;;;;;;;;;;;;;;;;;;5097829;28;19930;-79
2022/08/31 03:53:40;;;;;;;;;;;;;;;;;;5096391;28;19977;-81
2022/08/31 03:56:08;;;;;;;;;;;;;;;;;;5095648;28;19930;-79
2022/08/31 03:58:36;;;;;;;;;;;;;;;;;;5092672;28;19974;-78
2022/08/31 04:01:02;;;;;;;;;;;;;;;;;;5092164;28;19963;-78
2022/08/31 04:03:29;;;;;;;;;;;;;;;;;;5092130;28;19924;-78
2022/08/31 04:05:55;;;;;;;;;;;;;;;;;;5092129;28;20372;-76
2022/08/31 04:08:22;;;;;;;;;;;;;;;;;;5092845;28;20011;-79
2022/08/31 04:10:50;;;;;;;;;;;;;;;;;;5092037;28;20390;-78
2022/08/31 04:13:17;;;;;;;;;;;;;;;;;;5093159;28;19969;-78
2022/08/31 04:15:45;;;;;;;;;;;;;;;;;;5092926;28;19924;-78
2022/08/31 04:18:12;;;;;;;;;;;;;;;;;;5092989;28;19968;-77
2022/08/31 04:20:39;;;;;;;;;;;;;;;;;;5092736;28;20016;-77
2022/08/31 04:23:06;;;;;;;;;;;;;;;;;;5091874;28;19931;-77
2022/08/31 04:25:37;;;;;;;;;;;;;;;;;;5091841;28;19928;-78
2022/08/31 04:28:03;;;;;;;;;;;;;;;;;;5092847;28;19928;-76
2022/08/31 04:30:30;;;;;;;;;;;;;;;;;;5091987;28;20418;-77
2022/08/31 04:33:00;;;;;;;;;;;;;;;;;;5092228;28;19932;-77
2022/08/31 04:35:27;;;;;;;;;;;;;;;;;;5091887;28;19925;-78
2022/08/31 04:37:54;;;;;;;;;;;;;;;;;;5092015;28;19967;-79
2022/08/31 04:40:20;;;;;;;;;;;;;;;;;;5091859;28;19928;-76
2022/08/31 04:42:47;;;;;;;;;;;;;;;;;;5092209;28;19924;-79
2022/08/31 04:45:14;;;;;;;;;;;;;;;;;;5092182;28;19924;-78
2022/08/31 04:47:41;;;;;;;;;;;;;;;;;;5091672;28;19979;-78
2022/08/31 04:50:10;;;;;;;;;;;;;;;;;;5092513;28;20307;-76
2022/08/31 04:52:36;;;;;;;;;;;;;;;;;;5095603;28;19924;-77
2022/08/31 04:55:03;;;;;;;;;;;;;;;;;;5095633;28;20448;-77
2022/08/31 04:57:30;;;;;;;;;;;;;;;;;;5096891;28;19924;-77
2022/08/31 04:59:56;;;;;;;;;;;;;;;;;;5098220;28;20031;-77
2022/08/31 05:02:23;;;;;;;;;;;;;;;;;;5096543;28;19925;-79
2022/08/31 05:04:49;;;;;;;;;;;;;;;;;;5095414;28;20069;-77
2022/08/31 05:07:17;;;;;;;;;;;;;;;;;;5096119;28;20387;-78
2022/08/31 05:09:44;;;;;;;;;;;;;;;;;;5103179;28;19924;-77
2022/08/31 05:12:10;;;;;;;;;;;;;;;;;;5106797;28;19928;-78
2022/08/31 05:14:38;;;;;;;;;;;;;;;;;;5101710;28;19924;-80
2022/08/31 05:17:05;;;;;;;;;;;;;;;;;;5099085;28;19924;-79
2022/08/31 05:19:31;;;;;;;;;;;;;;;;;;5099170;28;19924;-80
2022/08/31 05:21:58;;;;;;;;;;;;;;;;;;5104337;28;20003;-80
2022/08/31 05:24:26;;;;;;;;;;;;;;;;;;5104079;28;19924;-80
2022/08/31 05:26:53;;;;;;;;;;;;;;;;;;5102953;28;19931;-81
2022/08/31 05:29:21;;;;;;;;;;;;;;;;;;5100326;28;19954;-80
2022/08/31 05:31:48;;;;;;;;;;;;;;;;;;5100163;28;19930;-80
2022/08/31 05:34:16;;;;;;;;;;;;;;;;;;5099418;28;19979;-80
2022/08/31 05:36:43;;;;;;;;;;;;;;;;;;5098980;28;19924;-80
2022/08/31 05:39:10;;;;;;;;;;;;;;;;;;5098854;28;19928;-80
2022/08/31 05:41:38;;;;;;;;;;;;;;;;;;5098744;28;19985;-80
2022/08/31 05:44:05;;;;;;;;;;;;;;;;;;5099290;28;19924;-80
2022/08/31 05:46:33;;;;;;;;;;;;;;;;;;5098307;28;19932;-79
2022/08/31 05:48:59;;;;;;;;;;;;;;;;;;5096035;28;20031;-77
2022/08/31 05:51:26;;;;;;;;;;;;;;;;;;5096806;28;20019;-79
2022/08/31 05:53:52;;;;;;;;;;;;;;;;;;5097652;28;19963;-80
2022/08/31 05:56:19;;;;;;;;;;;;;;;;;;5097822;28;19967;-80
2022/08/31 05:58:48;;;;;;;;;;;;;;;;;;5097367;28;19923;-80
2022/08/31 06:01:15;;;;;;;;;;;;;;;;;;5097893;28;19924;-80
2022/08/31 06:03:42;;;;;;;;;;;;;;;;;;5097871;28;19924;-79
2022/08/31 06:06:09;;;;;;;;;;;;;;;;;;5098488;28;19924;-79
2022/08/31 06:08:35;;;;;;;;;;;;;;;;;;5097939;28;19924;-81
2022/08/31 06:11:02;;;;;;;;;;;;;;;;;;5097183;28;19924;-80
2022/08/31 06:13:29;;;;;;;;;;;;;;;;;;5098682;28;20007;-80
2022/08/31 06:15:57;;;;;;;;;;;;;;;;;;5100324;28;19924;-81
2022/08/31 06:18:24;;;;;;;;;;;;;;;;;;5098612;28;19931;-80
2022/08/31 06:20:50;;;;;;;;;;;;;;;;;;5096700;28;19935;-80
2022/08/31 06:23:17;;;;;;;;;;;;;;;;;;5097369;28;19982;-80
2022/08/31 06:25:43;;;;;;;;;;;;;;;;;;5097372;28;19931;-80
2022/08/31 06:28:13;;;;;;;;;;;;;;;;;;5095924;28;19930;-80
2022/08/31 06:30:39;;;;;;;;;;;;;;;;;;5096601;28;19930;-81
2022/08/31 06:33:07;;;;;;;;;;;;;;;;;;5105014;22;19924;-75
2022/08/31 06:35:38;;;;;;;;;;;;;;;;;;5093770;28;19924;-76
2022/08/31 06:38:05;;;;;;;;;;;;;;;;;;5093590;28;20413;-76
2022/08/31 06:40:31;;;;;;;;;;;;;;;;;;5093045;28;19928;-75
2022/08/31 06:42:58;;;;;;;;;;;;;;;;;;5082691;28;19984;-76
2022/08/31 06:45:25;;;;;;;;;;;;;;;;;;5073735;28;19924;-75
2022/08/31 06:47:51;;;;;;;;;;;;;;;;;;5073714;28;20502;-75
2022/08/31 06:50:19;;;;;;;;;;;;;;;;;;5072693;28;20015;-75
2022/08/31 06:52:47;;;;;;;;;;;;;;;;;;5072758;28;20346;-75
2022/08/31 06:55:13;;;;;;;;;;;;;;;;;;5073429;28;19925;-76
2022/08/31 06:57:40;;;;;;;;;;;;;;;;;;5073000;28;19967;-76
2022/08/31 07:00:07;;;;;;;;;;;;;;;;;;5072540;28;19924;-76
2022/08/31 07:02:33;;;;;;;;;;;;;;;;;;5072824;28;19925;-75
2022/08/31 07:05:00;;;;;;;;;;;;;;;;;;5072707;28;19970;-75
2022/08/31 07:07:27;;;;;;;;;;;;;;;;;;5072291;28;19929;-75
2022/08/31 07:09:54;;;;;;;;;;;;;;;;;;5072027;28;19924;-76
2022/08/31 07:12:20;;;;;;;;;;;;;;;;;;5072153;28;19928;-74
2022/08/31 07:14:47;;;;;;;;;;;;;;;;;;5072662;28;19936;-75
2022/08/31 07:17:13;;;;;;;;;;;;;;;;;;5072819;28;19925;-75
2022/08/31 07:19:40;;;;;;;;;;;;;;;;;;5072109;28;19924;-75
2022/08/31 07:22:08;;;;;;;;;;;;;;;;;;5072554;28;19973;-75
2022/08/31 07:24:36;;;;;;;;;;;;;;;;;;5072369;28;20377;-75
2022/08/31 07:27:04;;;;;;;;;;;;;;;;;;5072569;28;19976;-76
2022/08/31 07:29:36;;;;;;;;;;;;;;;;;;5071912;28;19931;-75
2022/08/31 07:32:03;;;;;;;;;;;;;;;;;;5072466;28;19929;-76
2022/08/31 07:34:30;;;;;;;;;;;;;;;;;;5072319;28;20453;-76
2022/08/31 07:42:29;;;;;;;;;;;;;;;;;;5072385;28;20032;-75
2022/08/31 07:44:56;;;;;;;;;;;;;;;;;;5072129;28;19925;-76
2022/08/31 07:47:27;;;;;;;;;;;;;;;;;;5072271;28;20023;-76
2022/08/31 07:49:54;;;;;;;;;;;;;;;;;;5071935;28;20391;-76
2022/08/31 07:52:22;;;;;;;;;;;;;;;;;;5072231;28;19924;-76
2022/08/31 07:54:51;;;;;;;;;;;;;;;;;;5072145;28;19970;-76
2022/08/31 07:57:18;;;;;;;;;;;;;;;;;;5072087;28;19960;-75
2022/08/31 07:59:46;;;;;;;;;;;;;;;;;;5071649;28;20375;-75
2022/08/31 08:02:13;;;;;;;;;;;;;;;;;;5071766;28;19935;-76
2022/08/31 08:04:43;;;;;;;;;;;;;;;;;;5072526;28;19970;-77
2022/08/31 08:07:10;;;;;;;;;;;;;;;;;;5072141;28;20012;-77
2022/08/31 08:09:37;;;;;;;;;;;;;;;;;;5071686;28;19986;-76
2022/08/31 08:12:06;;;;;;;;;;;;;;;;;;5071799;28;20015;-75
2022/08/31 08:14:33;;;;;;;;;;;;;;;;;;5072181;28;19939;-75
2022/08/31 08:16:59;;;;;;;;;;;;;;;;;;5071951;28;19924;-76
2022/08/31 08:19:26;;;;;;;;;;;;;;;;;;5071894;28;19978;-76
2022/08/31 08:21:52;;;;;;;;;;;;;;;;;;5072358;28;20019;-75
2022/08/31 08:24:19;;;;;;;;;;;;;;;;;;5072253;28;19925;-77
2022/08/31 08:26:46;;;;;;;;;;;;;;;;;;5076106;28;19928;-77
2022/08/31 08:29:14;;;;;;;;;;;;;;;;;;5075987;28;20303;-74
2022/08/31 08:31:41;;;;;;;;;;;;;;;;;;5075786;28;20290;-76
2022/08/31 08:34:08;;;;;;;;;;;;;;;;;;5075833;28;19924;-76
2022/08/31 08:36:35;;;;;;;;;;;;;;;;;;5075673;28;20011;-76
2022/08/31 08:39:04;;;;;;;;;;;;;;;;;;5075455;28;19971;-76
2022/08/31 08:41:33;;;;;;;;;;;;;;;;;;5075123;28;20019;-76
2022/08/31 08:44:00;;;;;;;;;;;;;;;;;;5076222;28;19933;-76
2022/08/31 08:46:30;;;;;;;;;;;;;;;;;;5075973;28;20294;-76
2022/08/31 08:48:59;;;;;;;;;;;;;;;;;;5075616;28;20019;-77
2022/08/31 08:51:28;;;;;;;;;;;;;;;;;;5075018;28;20398;-76
2022/08/31 08:53:58;;;;;;;;;;;;;;;;;;5075227;28;19978;-76
2022/08/31 08:56:26;;;;;;;;;;;;;;;;;;5075489;28;19929;-76
2022/08/31 08:58:52;;;;;;;;;;;;;;;;;;5075094;28;20475;-76
2022/08/31 09:01:25;;;;;;;;;;;;;;;;;;5074655;28;19963;-75
2022/08/31 09:03:58;;;;;;;;;;;;;;;;;;5075266;28;20364;-75
2022/08/31 09:06:30;;;;;;;;;;;;;;;;;;5074679;28;20023;-75
2022/08/31 09:09:16;;;;;;;;;;;;;;;;;;5075342;28;19975;-76
2022/08/31 09:11:51;;;;;;;;;;;;;;;;;;5074958;28;19924;-74
2022/08/31 09:14:23;;;;;;;;;;;;;;;;;;5075677;28;19970;-77
2022/08/31 09:16:55;;;;;;;;;;;;;;;;;;5076343;28;19925;-76
2022/08/31 09:19:22;;;;;;;;;;;;;;;;;;5076713;28;19925;-76
2022/08/31 09:21:50;;;;;;;;;;;;;;;;;;5075556;28;19924;-75
2022/08/31 09:24:19;;;;;;;;;;;;;;;;;;5077021;28;19924;-76
2022/08/31 09:26:50;;;;;;;;;;;;;;;;;;5076755;28;19929;-76
2022/08/31 09:29:20;;;;;;;;;;;;;;;;;;5075568;28;20339;-76
2022/08/31 09:31:47;;;;;;;;;;;;;;;;;;5076291;28;19948;-75
2022/08/31 09:34:27;;;;;;;;;;;;;;;;;;5076998;28;19952;-76
2022/08/31 09:37:00;;;;;;;;;;;;;;;;;;5076193;28;19928;-75
2022/08/31 09:39:29;;;;;;;;;;;;;;;;;;5075141;28;19935;-76
2022/08/31 09:41:59;;;;;;;;;;;;;;;;;;5077034;28;20387;-76
2022/08/31 09:44:31;;;;;;;;;;;;;;;;;;5075723;28;19946;-76
2022/08/31 09:47:01;;;;;;;;;;;;;;;;;;5074919;28;19924;-75
2022/08/31 09:49:30;;;;;;;;;;;;;;;;;;5073904;28;19924;-75
2022/08/31 09:52:17;;;;;;;;;;;;;;;;;;5074571;28;19960;-74
2022/08/31 09:57:42;;;;;;;;;;;;;;;;;;5073947;28;20402;-76
2022/08/31 10:00:13;;;;;;;;;;;;;;;;;;5073426;28;20383;-76
2022/08/31 10:02:42;;;;;;;;;;;;;;;;;;5073434;28;19978;-76
2022/08/31 10:05:27;;;;;;;;;;;;;;;;;;5073844;28;19946;-76
2022/08/31 10:08:03;;;;;;;;;;;;;;;;;;5074062;28;19981;-76
2022/08/31 10:10:33;;;;;;;;;;;;;;;;;;5073409;28;19970;-76
2022/08/31 10:13:02;;;;;;;;;;;;;;;;;;5074660;28;19986;-78
2022/08/31 10:15:32;;;;;;;;;;;;;;;;;;5074062;28;19928;-75
2022/08/31 10:18:12;;;;;;;;;;;;;;;;;;5073740;28;20379;-76
2022/08/31 10:20:45;;;;;;;;;;;;;;;;;;5073085;28;20023;-76
2022/08/31 10:23:15;;;;;;;;;;;;;;;;;;5073399;28;20394;-76
2022/08/31 10:25:47;;;;;;;;;;;;;;;;;;5074013;28;19928;-75
2022/08/31 10:28:16;;;;;;;;;;;;;;;;;;5073350;28;20421;-75
2022/08/31 10:30:47;;;;;;;;;;;;;;;;;;5073163;28;19928;-75
2022/08/31 10:33:16;;;;;;;;;;;;;;;;;;5073191;28;19976;-75
2022/08/31 10:35:51;;;;;;;;;;;;;;;;;;5073573;28;20046;-76
2022/08/31 10:38:25;;;;;;;;;;;;;;;;;;5073220;28;19932;-75
2022/08/31 10:40:58;;;;;;;;;;;;;;;;;;5073041;28;19931;-75
2022/08/31 10:43:28;;;;;;;;;;;;;;;;;;5072945;28;20020;-75
2022/08/31 10:45:58;;;;;;;;;;;;;;;;;;5072970;28;19970;-75
2022/08/31 10:48:25;;;;;;;;;;;;;;;;;;5071868;28;20352;-75
2022/08/31 10:50:58;;;;;;;;;;;;;;;;;;5072418;28;19928;-75
2022/08/31 10:53:33;;;;;;;;;;;;;;;;;;5072430;28;19928;-75
2022/08/31 10:56:10;;;;;;;;;;;;;;;;;;5072926;28;20387;-75
2022/08/31 10:58:40;;;;;;;;;;;;;;;;;;5072879;28;19978;-75
2022/08/31 11:01:09;;;;;;;;;;;;;;;;;;5072143;28;19925;-74
2022/08/31 11:03:52;;;;;;;;;;;;;;;;;;5072788;28;19924;-74
2022/08/31 11:06:23;;;;;;;;;;;;;;;;;;5072816;28;19978;-75
2022/08/31 11:08:55;;;;;;;;;;;;;;;;;;5072645;28;19928;-75
2022/08/31 11:11:25;;;;;;;;;;;;;;;;;;5072481;28;20399;-75
2022/08/31 11:13:59;;;;;;;;;;;;;;;;;;5072306;28;19982;-74
2022/08/31 11:16:37;;;;;;;;;;;;;;;;;;5072305;28;20390;-75
2022/08/31 11:19:24;;;;;;;;;;;;;;;;;;5072274;28;19931;-75
2022/08/31 11:22:18;;;;;;;;;;;;;;;;;;5072360;28;20015;-74
2022/08/31 11:24:56;;;;;;;;;;;;;;;;;;5013862;28;19967;-75
2022/08/31 11:27:23;;;;;;;;;;;;;;;;;;5072534;28;19963;-74
2022/08/31 11:29:55;;;;;;;;;;;;;;;;;;5072139;28;19931;-74
2022/08/31 11:32:25;;;;;;;;;;;;;;;;;;5072170;28;19936;-74
2022/08/31 11:34:53;;;;;;;;;;;;;;;;;;5072378;28;19924;-75
2022/08/31 11:37:37;;;;;;;;;;;;;;;;;;5072284;28;19929;-75
2022/08/31 11:40:09;;;;;;;;;;;;;;;;;;5070949;28;19971;-75
2022/08/31 11:42:59;;;;;;;;;;;;;;;;;;5072244;28;20009;-75
2022/08/31 11:45:27;;;;;;;;;;;;;;;;;;5072251;28;19932;-75
2022/08/31 11:47:54;;;;;;;;;;;;;;;;;;5071932;28;19938;-75
2022/08/31 11:50:39;;;;;;;;;;;;;;;;;;5071729;28;19924;-75
2022/08/31 11:53:18;;;;;;;;;;;;;;;;;;5055243;28;19946;-75
2022/08/31 11:55:48;;;;;;;;;;;;;;;;;;5072136;28;19928;-74
2022/08/31 11:58:21;;;;;;;;;;;;;;;;;;5071716;28;19967;-74
2022/08/31 12:00:50;;;;;;;;;;;;;;;;;;5075704;28;19924;-75
2022/08/31 12:03:49;;;;;;;;;;;;;;;;;;5075811;28;19925;-75
2022/08/31 12:06:36;;;;;;;;;;;;;;;;;;5013954;28;20174;-76
2022/08/31 12:09:14;;;;;;;;;;;;;;;;;;5070509;28;20065;-75
2022/08/31 12:11:46;;;;;;;;;;;;;;;;;;5085268;28;20140;-75
2022/08/31 12:14:17;;;;;;;;;;;;;;;;;;5076039;28;19978;-75
2022/08/31 12:16:50;;;;;;;;;;;;;;;;;;5075624;28;19989;-75
2022/08/31 12:25:04;;;;;;;;;;;;;;;;;;5075664;28;20003;-75
2022/08/31 12:27:35;;;;;;;;;;;;;;;;;;5075774;28;20314;-75
2022/08/31 12:30:19;;;;;;;;;;;;;;;;;;5074800;28;19972;-75
2022/08/31 12:32:50;;;;;;;;;;;;;;;;;;5121457;22;19928;-77
2022/08/31 12:35:19;;;;;;;;;;;;;;;;;;5038214;28;19956;-78
2022/08/31 12:37:45;;;;;;;;;;;;;;;;;;5045722;28;19979;-79
2022/08/31 12:40:17;;;;;;;;;;;;;;;;;;5038263;28;20364;-76
2022/08/31 12:42:54;;;;;;;;;;;;;;;;;;5035834;28;19975;-77
2022/08/31 12:45:24;;;;;;;;;;;;;;;;;;5035622;28;19967;-78
2022/08/31 12:47:57;;;;;;;;;;;;;;;;;;5036104;28;20016;-76
2022/08/31 12:50:32;;;;;;;;;;;;;;;;;;5035565;28;19968;-78
2022/08/31 12:53:13;;;;;;;;;;;;;;;;;;5035869;28;19925;-77
2022/08/31 12:55:43;;;;;;;;;;;;;;;;;;5033576;28;19928;-77
2022/08/31 12:58:23;;;;;;;;;;;;;;;;;;5035956;28;19972;-77
2022/08/31 13:00:49;;;;;;;;;;;;;;;;;;5036259;28;19957;-78
2022/08/31 13:03:19;;;;;;;;;;;;;;;;;;5036610;28;19975;-78
2022/08/31 13:05:58;;;;;;;;;;;;;;;;;;5036442;28;19956;-77
2022/08/31 13:08:25;;;;;;;;;;;;;;;;;;5038641;28;19994;-78
2022/08/31 13:10:52;;;;;;;;;;;;;;;;;;5037344;28;19932;-78
2022/08/31 13:13:24;;;;;;;;;;;;;;;;;;5038674;28;19969;-80
2022/08/31 13:15:51;;;;;;;;;;;;;;;;;;5039510;28;19968;-80
2022/08/31 13:18:21;;;;;;;;;;;;;;;;;;5040115;28;19971;-80
2022/08/31 13:20:48;;;;;;;;;;;;;;;;;;5038938;28;19925;-80
2022/08/31 13:23:20;;;;;;;;;;;;;;;;;;5038960;28;19933;-79
2022/08/31 13:25:58;;;;;;;;;;;;;;;;;;5037516;28;20019;-78
2022/08/31 13:28:29;;;;;;;;;;;;;;;;;;5034873;28;19925;-77
2022/08/31 13:30:58;;;;;;;;;;;;;;;;;;5034984;28;19925;-78
2022/08/31 13:33:30;;;;;;;;;;;;;;;;;;5034657;28;19925;-78
2022/08/31 13:36:02;;;;;;;;;;;;;;;;;;5034738;28;19988;-76
2022/08/31 13:38:40;;;;;;;;;;;;;;;;;;5034968;28;19932;-76
2022/08/31 13:41:15;;;;;;;;;;;;;;;;;;5034235;28;19925;-77
2022/08/31 13:43:57;;;;;;;;;;;;;;;;;;5034669;28;20273;-77
2022/08/31 13:46:25;;;;;;;;;;;;;;;;;;5037109;28;20402;-79
2022/08/31 13:48:52;;;;;;;;;;;;;;;;;;5038561;28;19925;-80
2022/08/31 13:51:20;;;;;;;;;;;;;;;;;;5037936;28;19964;-80
2022/08/31 13:53:47;;;;;;;;;;;;;;;;;;5038472;28;20360;-80
2022/08/31 13:59:25;;;;;;;;;;;;;;;;;;5042464;28;19940;-76
2022/08/31 14:01:53;;;;;;;;;;;;;;;;;;5035643;28;19925;-79
2022/08/31 14:04:42;;;;;;;;;;;;;;;;;;5034880;28;19932;-79
2022/08/31 14:07:08;;;;;;;;;;;;;;;;;;5036839;28;19980;-79
2022/08/31 14:09:42;;;;;;;;;;;;;;;;;;5037047;28;19995;-79
2022/08/31 14:12:08;;;;;;;;;;;;;;;;;;5035410;28;20376;-78
2022/08/31 14:14:42;;;;;;;;;;;;;;;;;;5035228;28;19925;-78
2022/08/31 14:17:14;;;;;;;;;;;;;;;;;;5034871;28;19936;-79
2022/08/31 14:19:42;;;;;;;;;;;;;;;;;;5034354;28;19925;-77
2022/08/31 14:22:16;;;;;;;;;;;;;;;;;;5033664;28;20020;-78
2022/08/31 14:24:43;;;;;;;;;;;;;;;;;;5034104;28;19933;-78
2022/08/31 14:27:11;;;;;;;;;;;;;;;;;;5034414;28;20295;-78
2022/08/31 14:29:40;;;;;;;;;;;;;;;;;;5033801;28;19925;-78
2022/08/31 14:32:08;;;;;;;;;;;;;;;;;;5035705;28;19961;-79
2022/08/31 14:34:47;;;;;;;;;;;;;;;;;;5038303;28;20047;-80
2022/08/31 14:37:18;;;;;;;;;;;;;;;;;;5038237;28;19936;-79
2022/08/31 14:39:46;;;;;;;;;;;;;;;;;;5038089;28;19925;-79
2022/08/31 14:42:15;;;;;;;;;;;;;;;;;;5037442;28;19925;-78
2022/08/31 14:44:45;;;;;;;;;;;;;;;;;;5044933;28;20016;-78
2022/08/31 14:47:13;;;;;;;;;;;;;;;;;;5042378;28;20299;-78
2022/08/31 14:49:42;;;;;;;;;;;;;;;;;;5041195;28;19925;-78
2022/08/31 14:52:11;;;;;;;;;;;;;;;;;;5042723;28;19948;-79
2022/08/31 14:54:39;;;;;;;;;;;;;;;;;;5036106;28;19925;-80
2022/08/31 14:57:08;;;;;;;;;;;;;;;;;;5038325;28;19932;-80
2022/08/31 14:59:36;;;;;;;;;;;;;;;;;;5038699;28;19928;-79
2022/08/31 15:02:03;;;;;;;;;;;;;;;;;;5050096;28;20447;-79
2022/08/31 15:04:32;;;;;;;;;;;;;;;;;;5057185;28;19947;-79
2022/08/31 15:07:01;;;;;;;;;;;;;;;;;;5056785;28;20390;-79
2022/08/31 15:09:28;;;;;;;;;;;;;;;;;;5057895;28;19940;-77
2022/08/31 15:11:59;;;;;;;;;;;;;;;;;;5057633;28;19974;-78
2022/08/31 15:14:26;;;;;;;;;;;;;;;;;;5056780;28;19931;-79
2022/08/31 15:16:54;;;;;;;;;;;;;;;;;;5061158;28;20020;-77
2022/08/31 15:19:21;;;;;;;;;;;;;;;;;;5063545;28;19925;-77
2022/08/31 15:21:51;;;;;;;;;;;;;;;;;;5062649;28;19925;-79
2022/08/31 15:24:18;;;;;;;;;;;;;;;;;;5058219;28;20384;-79
2022/08/31 15:26:45;;;;;;;;;;;;;;;;;;5057649;28;20003;-78
2022/08/31 15:29:12;;;;;;;;;;;;;;;;;;5056067;28;19925;-77
2022/08/31 15:31:40;;;;;;;;;;;;;;;;;;5052896;28;20468;-78
2022/08/31 15:34:07;;;;;;;;;;;;;;;;;;5052544;28;19948;-78
2022/08/31 15:36:34;;;;;;;;;;;;;;;;;;5052969;28;19932;-78
2022/08/31 15:39:03;;;;;;;;;;;;;;;;;;5052705;28;19951;-79
2022/08/31 15:41:29;;;;;;;;;;;;;;;;;;5052527;28;19925;-77
2022/08/31 15:43:56;;;;;;;;;;;;;;;;;;5054073;28;19924;-78
2022/08/31 15:48:40;;;;;;;;;;;;;;;;;;5056140;28;20462;-79
2022/08/31 15:49:09;;;;;;;;;;;;;;;;;;5056085;28;19925;-78
2022/08/31 15:51:39;;;;;;;;;;;;;;;;;;5057345;28;19992;-78
2022/08/31 15:54:07;;;;;;;;;;;;;;;;;;5059863;28;19925;-77
2022/08/31 15:56:39;;;;;;;;;;;;;;;;;;5060194;28;19931;-77
2022/08/31 15:59:08;;;;;;;;;;;;;;;;;;5054437;28;20398;-77
2022/08/31 16:01:36;;;;;;;;;;;;;;;;;;5044301;28;19936;-77
2022/08/31 16:04:03;;;;;;;;;;;;;;;;;;5032701;28;19925;-78
2022/08/31 16:06:31;;;;;;;;;;;;;;;;;;5032533;28;19948;-77
2022/08/31 16:08:58;;;;;;;;;;;;;;;;;;5032623;28;19975;-78
2022/08/31 16:11:27;;;;;;;;;;;;;;;;;;5031781;28;19976;-78
2022/08/31 16:13:57;;;;;;;;;;;;;;;;;;5032286;28;19929;-78
2022/08/31 16:16:25;;;;;;;;;;;;;;;;;;5032347;28;19925;-77
2022/08/31 16:18:52;;;;;;;;;;;;;;;;;;5032681;28;20016;-77
2022/08/31 16:21:20;;;;;;;;;;;;;;;;;;5032053;28;19932;-78
2022/08/31 16:23:47;;;;;;;;;;;;;;;;;;5032577;28;19928;-77
2022/08/31 16:26:14;;;;;;;;;;;;;;;;;;5033029;28;20365;-77
2022/08/31 16:28:42;;;;;;;;;;;;;;;;;;5032398;28;19932;-76
2022/08/31 16:31:11;;;;;;;;;;;;;;;;;;5031840;28;20399;-76
2022/08/31 16:33:39;;;;;;;;;;;;;;;;;;5032148;28;19988;-78
2022/08/31 16:36:06;;;;;;;;;;;;;;;;;;5032350;28;19929;-78
2022/08/31 16:38:32;;;;;;;;;;;;;;;;;;5032449;28;19932;-77
2022/08/31 16:41:00;;;;;;;;;;;;;;;;;;5031955;28;19979;-77
2022/08/31 16:43:27;;;;;;;;;;;;;;;;;;5032664;28;19925;-77
2022/08/31 16:45:55;;;;;;;;;;;;;;;;;;5033284;28;20012;-78
2022/08/31 16:51:13;;;;;;;;;;;;;;;;;;5036209;28;19947;-76
2022/08/31 16:53:41;;;;;;;;;;;;;;;;;;5036787;28;20431;-78
2022/08/31 16:56:07;;;;;;;;;;;;;;;;;;5035788;28;20392;-78
2022/08/31 16:58:34;;;;;;;;;;;;;;;;;;5035924;28;19980;-79
2022/08/31 17:01:03;;;;;;;;;;;;;;;;;;5038320;28;20438;-78
2022/08/31 17:03:30;;;;;;;;;;;;;;;;;;5055182;28;20059;-78
2022/08/31 17:05:56;;;;;;;;;;;;;;;;;;5055547;28;19972;-78
2022/08/31 17:08:23;;;;;;;;;;;;;;;;;;5055597;28;19974;-78
2022/08/31 17:10:50;;;;;;;;;;;;;;;;;;5055205;28;19924;-78
2022/08/31 17:13:16;;;;;;;;;;;;;;;;;;5055269;28;20454;-78
2022/08/31 17:15:43;;;;;;;;;;;;;;;;;;5055558;28;19976;-78
2022/08/31 17:18:11;;;;;;;;;;;;;;;;;;5055219;28;19925;-78
2022/08/31 17:20:38;;;;;;;;;;;;;;;;;;5055141;28;19925;-78
2022/08/31 17:23:05;;;;;;;;;;;;;;;;;;5055311;28;19924;-79